Time;durP1;ratioP1;P1;durP2;ratioP2;P2;SDS_P1;SDS_P2;PMS_P1;PMS_P2;Temp;Humidity;BMP_temperature;BMP_pressure;BME280_temperature;BME280_humidity;BME280_pressure;Samples;Min_cycle;Max_cycle;Signal;HPM_P1;HPM_P2
2021/05/04 00:01:47;;;;;;;532.20;510.20;;;5.00;99.90;;;;;;5013257;28;20444;-60
2021/05/04 00:04:15;;;;;;;457.48;440.02;;;5.00;99.90;;;;;;5014109;28;20934;-62
2021/05/04 00:06:42;;;;;;;428.52;412.33;;;4.90;99.90;;;;;;5014257;28;20428;-60
2021/05/04 00:09:09;;;;;;;427.80;411.83;;;4.90;99.90;;;;;;5015677;28;20941;-60
2021/05/04 00:11:37;;;;;;;452.27;435.05;;;4.90;99.90;;;;;;5030284;28;20417;-61
2021/05/04 00:14:04;;;;;;;474.80;456.10;;;5.00;99.90;;;;;;5016377;28;20764;-60
2021/05/04 00:16:32;;;;;;;503.58;482.88;;;5.10;99.90;;;;;;5013303;28;20413;-61
2021/05/04 00:19:01;;;;;;;505.67;485.30;;;5.10;99.90;;;;;;5013033;28;20475;-60
2021/05/04 00:21:29;;;;;;;494.92;475.23;;;5.10;99.90;;;;;;5013519;28;20432;-60
2021/05/04 00:23:56;;;;;;;507.63;487.00;;;5.10;99.90;;;;;;5013836;28;20427;-60
2021/05/04 00:26:24;;;;;;;499.77;479.17;;;5.30;99.90;;;;;;5013691;28;20416;-60
2021/05/04 00:28:52;;;;;;;488.10;468.65;;;5.50;99.90;;;;;;5012127;28;20488;-60
2021/05/04 00:31:20;;;;;;;487.13;467.65;;;5.60;99.90;;;;;;5013493;28;21086;-61
2021/05/04 00:33:47;;;;;;;435.55;419.35;;;5.60;99.90;;;;;;5013581;28;20892;-61
2021/05/04 00:36:15;;;;;;;413.92;398.42;;;5.50;99.90;;;;;;5013852;28;20408;-61
2021/05/04 00:38:43;;;;;;;405.10;390.40;;;5.60;99.90;;;;;;5013401;28;20419;-60
2021/05/04 00:41:10;;;;;;;385.45;371.55;;;5.60;99.90;;;;;;5013661;28;20765;-62
2021/05/04 00:43:38;;;;;;;392.83;378.43;;;5.80;99.90;;;;;;5013400;28;20524;-60
2021/05/04 00:46:05;;;;;;;401.30;386.35;;;5.90;99.90;;;;;;5012821;28;20717;-61
2021/05/04 00:48:33;;;;;;;394.35;379.70;;;6.00;99.90;;;;;;5028443;28;20526;-61
2021/05/04 00:51:01;;;;;;;401.45;386.85;;;6.10;99.90;;;;;;5013708;28;20420;-61
2021/05/04 00:53:31;;;;;;;411.40;396.65;;;6.20;99.90;;;;;;5014318;28;20459;-61
2021/05/04 00:55:59;;;;;;;370.33;357.23;;;6.30;99.90;;;;;;5013134;28;20889;-61
2021/05/04 00:58:27;;;;;;;341.85;329.95;;;6.40;99.90;;;;;;5014687;28;20443;-60
2021/05/04 01:00:57;;;;;;;370.60;357.53;;;6.30;99.90;;;;;;5005529;28;20454;-58
2021/05/04 01:03:25;;;;;;;360.50;347.80;;;6.30;99.90;;;;;;4996643;28;20482;-59
2021/05/04 01:05:53;;;;;;;366.33;353.60;;;6.40;99.90;;;;;;4994471;28;20438;-58
2021/05/04 01:08:20;;;;;;;536.47;515.22;;;6.40;99.90;;;;;;4993773;28;20509;-61
2021/05/04 01:10:49;;;;;;;551.47;529.10;;;6.40;99.90;;;;;;4995177;28;20410;-59
2021/05/04 01:13:16;;;;;;;539.03;517.60;;;6.30;99.90;;;;;;4994902;28;20794;-59
2021/05/04 01:15:45;;;;;;;532.22;511.00;;;6.30;99.90;;;;;;4997963;28;20889;-61
2021/05/04 01:18:13;;;;;;;536.63;514.20;;;6.30;99.90;;;;;;5013877;28;20460;-60
2021/05/04 01:20:41;;;;;;;509.85;489.55;;;6.30;99.90;;;;;;5014902;28;20417;-59
2021/05/04 01:23:11;;;;;;;568.88;543.95;;;6.40;99.90;;;;;;5015752;28;20420;-60
2021/05/04 01:26:04;;;;;;;550.67;526.97;;;6.50;99.90;;;;;;5015244;28;20892;-60
2021/05/04 01:28:32;;;;;;;526.83;505.70;;;6.50;99.90;;;;;;5015656;28;20419;-60
2021/05/04 01:31:00;;;;;;;564.78;537.28;;;6.40;99.90;;;;;;5017524;28;20412;-60
2021/05/04 01:33:27;;;;;;;523.50;501.80;;;6.50;99.90;;;;;;5019170;28;20413;-60
2021/05/04 01:35:55;;;;;;;408.88;393.85;;;6.50;99.90;;;;;;5019038;28;20419;-60
2021/05/04 01:38:23;;;;;;;418.20;402.67;;;6.60;99.90;;;;;;5019236;28;20420;-60
2021/05/04 01:40:51;;;;;;;499.33;479.92;;;6.50;99.90;;;;;;5018644;28;20420;-60
2021/05/04 01:43:20;;;;;;;603.97;577.38;;;6.50;99.90;;;;;;5018788;28;20761;-60
2021/05/04 01:45:48;;;;;;;566.70;542.90;;;6.50;99.90;;;;;;5016612;28;20467;-60
2021/05/04 01:48:15;;;;;;;528.92;507.73;;;6.60;99.90;;;;;;5018277;28;20409;-60
2021/05/04 01:50:43;;;;;;;469.08;451.50;;;6.60;99.90;;;;;;5017612;28;20432;-59
2021/05/04 01:53:10;;;;;;;622.40;594.15;;;6.80;99.90;;;;;;5018175;28;20494;-60
2021/05/04 01:55:39;;;;;;;623.55;594.47;;;6.80;99.90;;;;;;5018856;28;20883;-61
2021/05/04 01:58:06;;;;;;;542.83;520.47;;;6.80;99.90;;;;;;5018292;28;20417;-60
2021/05/04 02:00:33;;;;;;;490.88;471.58;;;6.80;99.90;;;;;;5017700;28;20436;-60
2021/05/04 02:03:06;;;;;;;461.30;443.80;;;6.80;99.90;;;;;;5018907;28;20408;-59
2021/05/04 02:05:34;;;;;;;613.80;582.27;;;6.70;99.90;;;;;;5019015;28;20533;-60
2021/05/04 02:08:02;;;;;;;662.55;623.03;;;6.70;99.90;;;;;;5018331;28;20440;-60
2021/05/04 02:10:29;;;;;;;665.90;626.28;;;6.70;99.90;;;;;;5017833;28;20423;-60
2021/05/04 02:12:57;;;;;;;656.10;616.00;;;6.70;99.90;;;;;;5018381;28;20407;-60
2021/05/04 02:15:25;;;;;;;652.10;613.50;;;6.60;99.90;;;;;;5017760;28;20960;-60
2021/05/04 02:17:52;;;;;;;642.45;604.15;;;6.60;99.90;;;;;;5017666;28;20453;-60
2021/05/04 02:20:20;;;;;;;615.60;586.92;;;6.70;99.90;;;;;;5017850;28;20880;-60
2021/05/04 02:22:47;;;;;;;602.25;575.00;;;6.60;99.90;;;;;;5017944;28;20894;-63
2021/05/04 02:25:15;;;;;;;626.53;597.05;;;6.70;99.90;;;;;;5018141;28;20459;-60
2021/05/04 02:27:43;;;;;;;631.47;602.22;;;6.60;99.90;;;;;;5018017;28;20440;-60
2021/05/04 02:30:13;;;;;;;644.97;607.00;;;6.60;99.90;;;;;;4999917;28;20453;-60
2021/05/04 02:32:40;;;;;;;616.83;584.10;;;6.50;99.90;;;;;;5018040;28;20404;-60
2021/05/04 02:35:09;;;;;;;617.75;587.95;;;6.40;99.90;;;;;;5018008;28;20405;-59
2021/05/04 02:37:37;;;;;;;610.20;581.30;;;6.40;99.90;;;;;;5016815;28;20417;-60
2021/05/04 02:40:06;;;;;;;606.58;578.38;;;6.30;99.90;;;;;;5015482;28;20420;-62
2021/05/04 02:42:33;;;;;;;593.70;565.72;;;6.20;99.90;;;;;;5017986;28;20757;-60
2021/05/04 02:45:01;;;;;;;604.70;573.65;;;6.20;99.90;;;;;;5018313;28;20466;-60
2021/05/04 02:47:29;;;;;;;575.08;547.75;;;6.30;99.90;;;;;;4998374;28;20437;-59
2021/05/04 02:49:57;;;;;;;563.87;534.77;;;6.30;99.90;;;;;;4997653;28;20958;-60
2021/05/04 02:52:24;;;;;;;456.90;439.10;;;6.30;99.90;;;;;;4996516;28;20410;-60
2021/05/04 02:54:52;;;;;;;415.42;400.17;;;6.40;99.90;;;;;;4995915;28;20423;-60
2021/05/04 02:57:20;;;;;;;517.35;493.85;;;6.40;99.90;;;;;;4995847;28;20426;-60
2021/05/04 02:59:48;;;;;;;511.33;490.25;;;6.50;99.90;;;;;;4995839;28;20453;-60
2021/05/04 03:02:15;;;;;;;507.70;487.02;;;6.20;99.90;;;;;;5013298;28;20926;-60
2021/05/04 03:04:44;;;;;;;438.52;421.75;;;6.10;99.90;;;;;;5015758;28;20409;-60
2021/05/04 03:07:11;;;;;;;583.35;557.58;;;6.10;99.90;;;;;;5016313;28;20448;-60
2021/05/04 03:09:41;;;;;;;593.90;565.33;;;6.00;99.90;;;;;;5031815;28;20419;-60
2021/05/04 03:12:08;;;;;;;600.78;570.72;;;5.90;99.90;;;;;;5018747;28;20411;-60
2021/05/04 03:14:36;;;;;;;572.15;545.53;;;5.90;99.90;;;;;;5017034;28;20412;-60
2021/05/04 03:17:03;;;;;;;502.83;482.50;;;5.90;99.90;;;;;;5022197;28;20409;-61
2021/05/04 03:19:31;;;;;;;494.90;475.05;;;6.00;99.90;;;;;;5028210;28;20425;-60
2021/05/04 03:22:00;;;;;;;378.63;364.75;;;5.90;99.90;;;;;;5033975;28;20435;-60
2021/05/04 03:24:27;;;;;;;396.35;381.55;;;6.00;99.90;;;;;;5017854;28;20417;-60
2021/05/04 03:26:54;;;;;;;399.95;385.05;;;5.90;99.90;;;;;;5017742;28;20416;-60
2021/05/04 03:29:22;;;;;;;400.30;385.17;;;5.80;99.90;;;;;;5015490;28;20409;-60
2021/05/04 03:31:49;;;;;;;369.53;356.07;;;5.80;99.90;;;;;;5014314;28;20903;-60
2021/05/04 03:34:17;;;;;;;347.83;335.42;;;5.80;99.90;;;;;;5015648;28;20412;-59
2021/05/04 03:36:44;;;;;;;434.00;417.38;;;5.80;99.90;;;;;;5015363;28;20486;-63
2021/05/04 03:39:13;;;;;;;433.13;416.35;;;5.60;99.90;;;;;;5015217;28;20405;-60
2021/05/04 03:41:40;;;;;;;566.63;538.00;;;5.70;99.90;;;;;;5014906;28;20892;-60
2021/05/04 03:44:08;;;;;;;550.17;521.20;;;5.70;99.90;;;;;;5015162;28;20969;-62
2021/05/04 03:46:39;;;;;;;555.13;528.03;;;5.70;99.90;;;;;;5013845;28;20483;-60
2021/05/04 03:49:06;;;;;;;550.78;524.85;;;5.80;99.90;;;;;;5015035;28;20421;-60
2021/05/04 03:54:26;;;;;;;517.47;494.75;;;5.80;99.90;;;;;;5016763;28;20413;-60
2021/05/04 03:56:54;;;;;;;568.80;536.28;;;5.70;99.90;;;;;;5017292;28;20432;-60
2021/05/04 03:59:22;;;;;;;558.40;526.42;;;5.80;99.90;;;;;;5017617;28;20441;-60
2021/05/04 04:01:49;;;;;;;569.65;534.50;;;5.70;99.90;;;;;;5016990;28;20425;-59
2021/05/04 04:04:16;;;;;;;544.60;517.30;;;5.70;99.90;;;;;;5018431;28;20759;-60
2021/05/04 04:06:44;;;;;;;562.05;532.40;;;5.80;99.90;;;;;;5016530;28;20412;-60
2021/05/04 04:09:11;;;;;;;545.63;519.17;;;5.70;99.90;;;;;;5017737;28;20459;-60
2021/05/04 04:11:40;;;;;;;534.65;511.20;;;5.70;99.90;;;;;;5017961;28;20479;-62
2021/05/04 04:14:08;;;;;;;573.63;542.50;;;5.70;99.90;;;;;;5022867;28;20488;-60
2021/05/04 04:19:28;;;;;;;564.78;538.17;;;5.70;99.90;;;;;;5033555;28;20419;-60
2021/05/04 04:21:55;;;;;;;561.35;535.03;;;5.90;99.90;;;;;;5017305;28;20584;-60
2021/05/04 04:24:23;;;;;;;555.50;528.80;;;5.90;99.90;;;;;;5016580;28;20415;-60
2021/05/04 04:26:54;;;;;;;559.03;533.15;;;5.80;99.90;;;;;;5016830;28;20897;-60
2021/05/04 04:29:22;;;;;;;558.47;532.38;;;5.90;99.90;;;;;;5014303;28;20764;-60
2021/05/04 04:31:49;;;;;;;584.85;552.60;;;6.10;99.90;;;;;;5012495;28;20511;-60
2021/05/04 04:34:16;;;;;;;603.42;568.03;;;6.30;99.90;;;;;;5013474;28;20429;-60
2021/05/04 04:36:43;;;;;;;658.25;602.22;;;6.50;99.90;;;;;;5013733;28;20932;-60
2021/05/04 04:39:11;;;;;;;625.03;580.53;;;6.50;99.90;;;;;;5013879;28;20409;-60
2021/05/04 04:41:41;;;;;;;613.30;577.67;;;6.50;99.90;;;;;;5014789;28;20447;-59
2021/05/04 04:44:10;;;;;;;602.20;568.15;;;6.40;99.90;;;;;;5014683;28;20419;-63
2021/05/04 04:46:40;;;;;;;632.67;591.40;;;6.50;99.90;;;;;;5012716;28;20422;-60
2021/05/04 04:49:10;;;;;;;660.37;610.33;;;6.70;99.90;;;;;;5013815;28;20430;-60
2021/05/04 04:52:02;;;;;;;634.60;594.83;;;6.90;99.90;;;;;;5013213;28;20490;-60
2021/05/04 04:54:32;;;;;;;651.28;604.58;;;6.80;99.90;;;;;;5013173;28;20412;-60
2021/05/04 04:56:59;;;;;;;617.67;587.77;;;7.10;99.90;;;;;;5012844;28;20419;-61
2021/05/04 04:59:29;;;;;;;634.17;603.88;;;7.20;99.90;;;;;;5013443;28;20810;-60
2021/05/04 05:01:57;;;;;;;645.85;609.08;;;7.30;99.90;;;;;;5012730;28;20504;-60
2021/05/04 05:04:24;;;;;;;656.33;617.05;;;7.50;99.90;;;;;;5013046;28;20412;-60
2021/05/04 05:06:52;;;;;;;683.92;632.75;;;7.70;99.90;;;;;;5014435;28;20815;-60
2021/05/04 05:09:20;;;;;;;662.10;623.70;;;7.70;99.90;;;;;;5019262;28;20420;-60
2021/05/04 05:11:48;;;;;;;634.80;601.70;;;7.80;99.90;;;;;;5016475;28;20417;-60
2021/05/04 05:14:16;;;;;;;692.08;649.20;;;8.10;99.90;;;;;;5015868;28;20412;-60
2021/05/04 05:17:10;;;;;;;719.55;676.13;;;8.10;99.90;;;;;;5013308;28;20423;-59
2021/05/04 05:20:04;;;;;;;704.55;667.75;;;8.50;99.90;;;;;;5016854;28;20419;-60
2021/05/04 05:22:32;;;;;;;633.58;607.58;;;8.40;99.90;;;;;;5015399;28;20412;-60
2021/05/04 05:25:03;;;;;;;680.33;647.65;;;8.70;99.90;;;;;;5017285;28;20420;-60
2021/05/04 05:27:33;;;;;;;652.20;623.60;;;8.70;99.90;;;;;;5014142;28;20877;-59
2021/05/04 05:30:01;;;;;;;637.00;611.13;;;8.80;99.90;;;;;;5017668;28;20416;-60
2021/05/04 05:32:30;;;;;;;728.00;690.47;;;9.00;99.90;;;;;;5014881;28;20405;-60
2021/05/04 05:34:58;;;;;;;518.17;498.90;;;9.30;99.90;;;;;;5022128;28;20900;-60
2021/05/04 05:37:25;;;;;;;532.30;511.77;;;9.40;99.90;;;;;;5039918;28;20404;-61
2021/05/04 05:39:53;;;;;;;368.63;355.95;;;9.60;99.90;;;;;;5020944;28;20472;-60
2021/05/04 05:45:14;;;;;;;367.20;354.83;;;9.70;99.90;;;;;;5023466;28;20994;-60
2021/05/04 05:47:42;;;;;;;466.05;449.15;;;9.90;99.70;;;;;;5022292;28;20419;-62
2021/05/04 05:50:10;;;;;;;583.60;561.20;;;10.10;98.90;;;;;;5042722;28;20448;-59
2021/05/04 05:52:37;;;;;;;374.45;361.30;;;10.00;98.70;;;;;;5020908;28;20452;-59
2021/05/04 05:55:06;;;;;;;211.75;205.27;;;10.00;98.70;;;;;;5021438;28;20403;-60
2021/05/04 05:57:33;;;;;;;130.02;126.05;;;10.10;98.30;;;;;;5020342;28;20761;-60
2021/05/04 06:00:00;;;;;;;130.38;126.47;;;9.80;99.10;;;;;;5032514;28;20419;-60
2021/05/04 06:02:28;;;;;;;106.28;103.07;;;10.00;98.70;;;;;;5014148;28;20448;-60
2021/05/04 06:04:56;;;;;;;379.63;366.63;;;9.80;98.90;;;;;;5014899;28;20440;-60
2021/05/04 06:07:29;;;;;;;614.85;589.60;;;10.10;98.80;;;;;;5014211;28;20424;-60
2021/05/04 06:09:57;;;;;;;319.42;308.95;;;10.20;98.40;;;;;;5014333;28;20401;-60
2021/05/04 06:12:24;;;;;;;380.77;367.60;;;10.10;98.20;;;;;;5015172;28;20420;-60
2021/05/04 06:14:51;;;;;;;447.42;431.55;;;10.20;98.40;;;;;;5018688;28;20416;-60
2021/05/04 06:17:24;;;;;;;247.85;239.82;;;10.20;97.90;;;;;;5015648;28;20462;-59
2021/05/04 06:19:52;;;;;;;433.90;418.45;;;10.40;97.90;;;;;;5032880;28;20456;-59
2021/05/04 06:22:21;;;;;;;264.13;255.82;;;10.40;97.90;;;;;;5017574;28;20412;-59
2021/05/04 06:24:48;;;;;;;825.58;771.20;;;10.50;97.70;;;;;;5017117;28;20420;-61
2021/05/04 06:27:16;;;;;;;793.92;755.78;;;10.20;98.30;;;;;;5016988;28;20417;-60
2021/05/04 06:29:45;;;;;;;264.63;256.23;;;10.40;98.20;;;;;;5016108;28;20436;-60
2021/05/04 06:32:14;;;;;;;668.10;639.05;;;10.60;97.60;;;;;;5031837;28;20413;-61
2021/05/04 06:34:42;;;;;;;648.42;622.72;;;10.60;97.60;;;;;;5017947;28;20459;-60
2021/05/04 06:37:09;;;;;;;466.92;450.10;;;10.70;97.80;;;;;;5021822;28;20411;-60
2021/05/04 06:39:38;;;;;;;828.20;783.55;;;10.70;97.40;;;;;;5019885;28;20409;-61
2021/05/04 06:42:06;;;;;;;821.05;776.92;;;10.60;97.60;;;;;;5016131;28;20416;-60
2021/05/04 06:44:34;;;;;;;578.28;555.00;;;10.60;97.60;;;;;;5018413;28;20435;-62
2021/05/04 06:47:03;;;;;;;680.58;652.67;;;10.60;97.60;;;;;;5021353;28;20757;-59
2021/05/04 06:49:30;;;;;;;817.10;775.55;;;10.70;97.40;;;;;;5019818;28;20420;-60
2021/05/04 06:51:58;;;;;;;592.53;569.78;;;10.60;97.70;;;;;;5018666;28;20420;-60
2021/05/04 06:54:25;;;;;;;733.08;702.17;;;10.70;97.80;;;;;;5018021;28;20410;-61
2021/05/04 06:56:53;;;;;;;739.33;705.97;;;10.70;97.60;;;;;;5014532;28;20420;-60
2021/05/04 06:59:23;;;;;;;763.20;730.07;;;10.80;97.60;;;;;;5016051;28;20484;-60
2021/05/04 07:01:50;;;;;;;753.77;720.20;;;10.90;97.40;;;;;;5015171;28;20441;-60
2021/05/04 07:04:18;;;;;;;660.63;633.78;;;10.50;97.70;;;;;;5016194;28;20436;-60
2021/05/04 07:06:45;;;;;;;850.75;794.83;;;10.60;98.00;;;;;;5018513;28;20409;-60
2021/05/04 07:09:13;;;;;;;814.33;775.80;;;10.70;97.60;;;;;;5017063;28;20413;-60
2021/05/04 07:11:44;;;;;;;856.13;805.20;;;10.80;97.50;;;;;;5016047;28;20452;-60
2021/05/04 07:14:12;;;;;;;830.20;792.03;;;10.90;97.40;;;;;;5015248;28;20405;-60
2021/05/04 07:16:40;;;;;;;844.10;798.10;;;11.00;97.40;;;;;;5014424;28;20770;-59
2021/05/04 07:19:07;;;;;;;688.88;660.92;;;11.10;97.40;;;;;;5014917;28;20508;-60
2021/05/04 07:21:35;;;;;;;806.67;770.70;;;11.30;97.10;;;;;;5015339;28;20420;-60
2021/05/04 07:24:03;;;;;;;718.00;688.22;;;11.10;97.10;;;;;;5014559;28;20471;-60
2021/05/04 07:26:32;;;;;;;832.65;794.47;;;11.30;97.20;;;;;;5015082;28;20409;-60
2021/05/04 07:28:59;;;;;;;512.72;493.65;;;11.30;96.50;;;;;;5014773;28;20417;-61
2021/05/04 07:31:30;;;;;;;810.88;773.00;;;11.50;96.70;;;;;;5013263;28;20425;-60
2021/05/04 07:33:57;;;;;;;869.38;824.58;;;11.60;96.30;;;;;;5014532;28;20893;-63
2021/05/04 07:36:26;;;;;;;738.55;705.80;;;11.30;96.70;;;;;;5014591;28;20421;-61
2021/05/04 07:38:53;;;;;;;758.92;725.78;;;11.40;96.60;;;;;;5015217;28;20804;-59
2021/05/04 07:41:21;;;;;;;518.58;498.50;;;11.50;96.50;;;;;;5014752;28;20431;-60
2021/05/04 07:43:49;;;;;;;573.38;550.88;;;11.60;96.40;;;;;;5015296;28;20405;-60
2021/05/04 07:46:16;;;;;;;894.40;841.10;;;11.50;96.30;;;;;;5014150;28;20405;-59
2021/05/04 07:48:45;;;;;;;798.25;762.95;;;11.40;96.30;;;;;;5014665;28;20789;-59
2021/05/04 07:51:16;;;;;;;736.80;705.45;;;11.50;96.40;;;;;;5015126;28;20889;-60
2021/05/04 07:53:44;;;;;;;744.43;711.80;;;11.80;96.10;;;;;;5014386;28;20486;-62
2021/05/04 07:56:11;;;;;;;752.90;720.30;;;11.80;95.70;;;;;;5015431;28;20417;-60
2021/05/04 07:58:41;;;;;;;813.65;774.63;;;11.70;95.80;;;;;;5014353;28;20885;-60
2021/05/04 08:01:09;;;;;;;668.08;638.67;;;11.90;95.80;;;;;;5014087;28;20425;-59
2021/05/04 08:03:36;;;;;;;825.58;788.53;;;12.10;94.80;;;;;;5014634;28;20409;-60
2021/05/04 08:06:05;;;;;;;719.33;688.73;;;12.10;94.60;;;;;;5014732;28;20424;-61
2021/05/04 08:08:34;;;;;;;503.75;484.70;;;12.20;94.50;;;;;;5014492;28;20491;-60
2021/05/04 08:11:02;;;;;;;680.08;651.50;;;12.30;93.90;;;;;;5014536;28;20429;-59
2021/05/04 08:13:29;;;;;;;910.33;863.07;;;12.50;93.90;;;;;;5014891;28;20417;-60
2021/05/04 08:15:56;;;;;;;626.15;600.55;;;12.30;93.90;;;;;;5013581;28;20420;-59
2021/05/04 08:18:24;;;;;;;569.87;547.27;;;12.50;93.80;;;;;;5014035;28;20516;-60
2021/05/04 08:20:53;;;;;;;924.03;874.90;;;12.70;93.30;;;;;;5013039;28;20404;-60
2021/05/04 08:23:48;;;;;;;816.22;779.03;;;12.40;93.30;;;;;;5014223;28;20452;-60
2021/05/04 08:26:15;;;;;;;861.15;819.22;;;12.50;93.60;;;;;;5014467;28;20413;-59
2021/05/04 08:28:49;;;;;;;880.30;835.95;;;12.60;93.00;;;;;;5014842;28;20851;-60
2021/05/04 08:31:17;;;;;;;874.08;833.22;;;12.70;92.70;;;;;;5013446;28;20433;-60
2021/05/04 08:33:44;;;;;;;801.47;766.53;;;12.70;92.70;;;;;;5013987;28;20420;-59
2021/05/04 08:36:11;;;;;;;908.95;862.60;;;12.50;92.70;;;;;;5013889;28;20434;-60
2021/05/04 08:38:39;;;;;;;454.73;437.80;;;12.50;92.80;;;;;;5013209;28;20409;-60
2021/05/04 08:41:08;;;;;;;373.08;360.08;;;12.60;92.60;;;;;;5013591;28;20962;-60
2021/05/04 08:43:36;;;;;;;871.80;827.70;;;12.70;92.50;;;;;;5014051;28;20470;-60
2021/05/04 08:46:04;;;;;;;576.63;553.40;;;12.80;92.40;;;;;;5012760;28;20413;-60
2021/05/04 08:48:31;;;;;;;686.47;657.75;;;12.80;92.30;;;;;;5014234;28;20411;-60
2021/05/04 08:50:59;;;;;;;360.75;348.55;;;12.90;92.30;;;;;;5015498;28;20482;-60
2021/05/04 08:53:47;;;;;;;740.40;705.37;;;12.90;92.00;;;;;;5018256;28;20467;-60
2021/05/04 08:56:16;;;;;;;646.97;620.05;;;13.00;91.80;;;;;;5021120;28;20456;-60
2021/05/04 08:58:44;;;;;;;562.15;539.78;;;12.90;91.80;;;;;;5019860;28;20500;-60
2021/05/04 09:01:15;;;;;;;851.93;804.73;;;13.10;91.60;;;;;;5013703;28;20501;-59
2021/05/04 09:03:45;;;;;;;884.60;841.35;;;13.40;91.40;;;;;;5013396;28;20404;-59
2021/05/04 09:06:15;;;;;;;257.20;249.40;;;13.60;90.70;;;;;;5013577;28;20448;-60
2021/05/04 09:08:48;;;;;;;571.87;548.63;;;13.50;90.70;;;;;;5013623;28;20415;-60
2021/05/04 09:11:32;;;;;;;872.08;831.42;;;13.70;90.60;;;;;;5013047;28;20410;-62
2021/05/04 09:14:06;;;;;;;693.88;663.80;;;13.60;90.50;;;;;;5012967;28;20504;-60
2021/05/04 09:16:38;;;;;;;537.58;516.15;;;13.80;90.40;;;;;;5012161;28;20444;-60
2021/05/04 09:19:14;;;;;;;673.55;644.88;;;13.70;90.00;;;;;;5012542;28;20417;-60
2021/05/04 09:21:43;;;;;;;826.38;786.05;;;13.80;90.10;;;;;;5012829;28;20873;-60
2021/05/04 09:24:19;;;;;;;699.70;669.03;;;14.20;89.90;;;;;;5012971;28;20429;-60
2021/05/04 09:26:48;;;;;;;785.25;749.50;;;14.50;89.20;;;;;;5013337;28;20504;-60
2021/05/04 09:29:17;;;;;;;545.60;523.55;;;14.50;88.40;;;;;;5014733;28;20420;-62
2021/05/04 09:31:44;;;;;;;734.38;701.88;;;14.70;88.00;;;;;;5012205;28;20421;-60
2021/05/04 09:34:13;;;;;;;664.70;635.70;;;14.70;87.80;;;;;;5013180;28;20425;-60
2021/05/04 09:36:45;;;;;;;378.15;364.45;;;14.70;87.70;;;;;;5012668;28;20421;-61
2021/05/04 09:39:25;;;;;;;550.28;527.30;;;14.90;86.90;;;;;;5012204;28;20431;-59
2021/05/04 09:41:55;;;;;;;442.25;425.40;;;15.00;86.60;;;;;;5013068;28;20741;-60
2021/05/04 09:44:37;;;;;;;712.47;680.15;;;15.30;85.40;;;;;;5012685;28;20536;-62
2021/05/04 09:47:06;;;;;;;181.48;176.00;;;15.30;85.30;;;;;;5011512;28;20991;-60
2021/05/04 09:49:34;;;;;;;118.78;115.13;;;15.50;84.70;;;;;;5012748;28;20420;-60
2021/05/04 09:52:32;;;;;;;133.48;129.60;;;15.60;85.10;;;;;;5030547;28;20420;-59
2021/05/04 09:55:06;;;;;;;18.70;17.80;;;15.40;85.00;;;;;;5016328;28;20523;-60
2021/05/04 09:57:36;;;;;;;7.68;7.28;;;15.70;84.00;;;;;;5016560;28;20773;-60
2021/05/04 10:00:07;;;;;;;34.90;33.60;;;16.40;83.00;;;;;;5016206;28;20462;-60
2021/05/04 10:02:35;;;;;;;14.48;13.88;;;16.30;82.10;;;;;;5016198;28;20970;-60
2021/05/04 10:05:04;;;;;;;20.83;19.95;;;16.20;81.30;;;;;;5016437;28;20772;-60
2021/05/04 10:07:33;;;;;;;27.73;26.67;;;16.30;81.90;;;;;;5017607;28;20415;-58
2021/05/04 10:10:02;;;;;;;27.40;26.40;;;16.80;81.40;;;;;;5017754;28;20427;-58
2021/05/04 10:12:30;;;;;;;155.05;149.95;;;16.50;80.80;;;;;;5017279;28;20419;-59
2021/05/04 10:15:01;;;;;;;51.50;49.78;;;17.40;80.00;;;;;;5016481;28;20404;-58
2021/05/04 10:17:54;;;;;;;52.45;50.85;;;17.30;74.70;;;;;;4996486;28;20415;-58
2021/05/04 10:20:25;;;;;;;28.10;27.00;;;16.80;73.50;;;;;;4997289;28;20421;-58
2021/05/04 10:22:55;;;;;;;743.13;673.33;;;16.90;71.90;;;;;;4998521;28;20501;-59
2021/05/04 10:25:22;;;;;;;988.15;931.67;;;16.90;70.30;;;;;;4997187;28;20460;-61
2021/05/04 10:27:53;;;;;;;723.13;659.23;;;16.90;70.00;;;;;;4998246;28;20674;-59
2021/05/04 10:30:24;;;;;;;970.20;921.55;;;16.80;70.00;;;;;;4998957;28;20445;-58
2021/05/04 10:32:54;;;;;;;695.67;644.13;;;17.00;69.30;;;;;;5017180;28;20191;-59
2021/05/04 10:35:43;;;;;;;956.38;909.08;;;17.10;68.80;;;;;;5016267;28;20748;-59
2021/05/04 10:38:12;;;;;;;624.03;597.50;;;17.10;67.80;;;;;;5016184;28;20492;-59
2021/05/04 10:40:43;;;;;;;562.03;538.33;;;16.90;67.40;;;;;;5015609;28;20445;-58
2021/05/04 10:43:40;;;;;;;420.73;404.98;;;16.80;68.20;;;;;;5015761;28;20411;-61
2021/05/04 10:46:12;;;;;;;673.47;643.28;;;17.20;67.20;;;;;;5015789;28;20507;-59
2021/05/04 10:48:46;;;;;;;725.03;692.17;;;17.10;67.20;;;;;;5016082;28;20955;-62
2021/05/04 10:51:15;;;;;;;393.05;378.58;;;17.10;68.20;;;;;;5016245;28;20409;-57
2021/05/04 10:54:05;;;;;;;263.70;255.27;;;17.40;67.20;;;;;;5016171;28;20409;-60
2021/05/04 10:56:41;;;;;;;261.25;253.05;;;17.70;66.50;;;;;;5015643;28;20443;-59
2021/05/04 10:59:11;;;;;;;786.73;748.43;;;17.80;66.60;;;;;;5015918;28;20417;-59
2021/05/04 11:01:40;;;;;;;388.92;374.27;;;18.20;66.30;;;;;;5014442;28;20774;-58
2021/05/04 11:04:07;;;;;;;487.48;466.80;;;17.60;66.00;;;;;;5015915;28;20429;-59
2021/05/04 11:06:59;;;;;;;211.90;205.10;;;17.90;65.60;;;;;;5015078;28;20489;-59
2021/05/04 11:09:26;;;;;;;133.90;129.90;;;17.80;65.30;;;;;;5015992;28;20408;-59
2021/05/04 11:11:55;;;;;;;133.75;129.45;;;17.60;65.50;;;;;;5016047;28;20459;-60
2021/05/04 11:14:36;;;;;;;428.30;411.80;;;17.50;65.40;;;;;;5015598;28;20416;-59
2021/05/04 11:20:34;;;;;;;20.63;19.70;;;17.20;62.00;;;;;;5015419;28;20405;-59
2021/05/04 11:23:02;;;;;;;23.85;22.90;;;17.20;59.50;;;;;;5030462;28;20423;-59
2021/05/04 11:25:40;;;;;;;23.25;22.35;;;17.30;59.00;;;;;;5015843;28;20411;-59
2021/05/04 11:28:09;;;;;;;12.60;11.80;;;17.10;57.40;;;;;;5015627;28;20404;-59
2021/05/04 11:30:39;;;;;;;26.85;25.77;;;17.10;57.30;;;;;;5014232;28;20427;-59
2021/05/04 11:33:28;;;;;;;22.83;22.02;;;17.00;56.80;;;;;;5015268;28;20397;-58
2021/05/04 11:35:56;;;;;;;4.85;3.70;;;17.00;57.20;;;;;;5015023;28;20451;-58
2021/05/04 11:38:25;;;;;;;10.27;9.70;;;16.90;57.40;;;;;;5015215;28;20401;-58
2021/05/04 11:40:54;;;;;;;7.70;7.10;;;17.00;57.70;;;;;;5015484;28;20472;-58
2021/05/04 11:43:24;;;;;;;5.18;4.88;;;16.90;57.20;;;;;;5015797;28;20443;-61
2021/05/04 11:45:52;;;;;;;78.43;76.07;;;16.80;56.40;;;;;;5014080;28;20881;-59
2021/05/04 11:48:19;;;;;;;35.30;34.10;;;16.70;56.00;;;;;;5014828;28;20412;-59
2021/05/04 11:50:50;;;;;;;11.45;10.95;;;16.70;56.10;;;;;;5014996;28;20472;-59
2021/05/04 11:53:18;;;;;;;9.32;8.82;;;16.70;56.30;;;;;;5014481;28;20413;-59
2021/05/04 11:55:47;;;;;;;262.98;254.90;;;16.70;56.10;;;;;;5014857;28;20943;-59
2021/05/04 11:58:18;;;;;;;13.27;12.68;;;16.70;56.20;;;;;;5014526;28;20412;-59
2021/05/04 12:00:46;;;;;;;8.88;8.27;;;16.80;55.80;;;;;;5013640;28;20404;-59
2021/05/04 12:03:15;;;;;;;3.70;3.28;;;16.80;55.80;;;;;;5014746;28;20492;-59
2021/05/04 12:05:44;;;;;;;4.47;3.30;;;17.10;55.80;;;;;;5014655;28;20427;-59
2021/05/04 12:08:13;;;;;;;3.70;3.40;;;17.00;55.50;;;;;;5014488;28;20413;-59
2021/05/04 12:10:46;;;;;;;7.90;7.40;;;16.90;55.60;;;;;;5029922;28;20463;-59
2021/05/04 12:13:27;;;;;;;6.32;6.00;;;17.00;56.30;;;;;;5014198;28;20769;-60
2021/05/04 12:15:57;;;;;;;2.60;2.40;;;16.80;56.90;;;;;;5013277;28;20409;-59
2021/05/04 12:18:28;;;;;;;3.73;3.43;;;16.90;57.20;;;;;;5013754;28;20861;-59
2021/05/04 12:20:58;;;;;;;4.30;3.10;;;16.70;57.30;;;;;;5014401;28;20409;-59
2021/05/04 12:23:31;;;;;;;4.00;3.40;;;16.80;57.50;;;;;;5014057;28;20524;-58
2021/05/04 12:26:01;;;;;;;2.70;2.50;;;16.70;57.00;;;;;;5013855;28;20427;-65
2021/05/04 12:28:31;;;;;;;2.60;2.30;;;16.70;56.90;;;;;;5014557;28;20409;-58
2021/05/04 12:31:04;;;;;;;3.05;2.75;;;16.70;57.10;;;;;;5013403;28;20427;-59
2021/05/04 12:33:33;;;;;;;3.20;2.90;;;16.70;57.10;;;;;;5014585;28;20425;-59
2021/05/04 12:36:03;;;;;;;2.40;2.20;;;16.80;57.00;;;;;;5014060;28;20463;-59
2021/05/04 12:38:39;;;;;;;29.20;27.98;;;16.80;57.30;;;;;;5013632;28;20424;-59
2021/05/04 12:41:12;;;;;;;8.25;7.85;;;16.90;57.40;;;;;;5015072;28;20435;-69